Time;durP1;ratioP1;P1;durP2;ratioP2;P2;SDS_P1;SDS_P2;PMS_P1;PMS_P2;Temp;Humidity;BMP_temperature;BMP_pressure;BME280_temperature;BME280_humidity;BME280_pressure;Samples;Min_cycle;Max_cycle;Signal;HPM_P1;HPM_P2
2022/07/25 00:07:47;;;;;;;;;;;;;;;26.79;35.45;100466.53;20666425;28;97602;-77
2022/07/25 00:17:47;;;;;;;;;;;;;;;26.65;35.77;100464.38;20669175;28;98002;-75
2022/07/25 00:27:48;;;;;;;;;;;;;;;26.66;35.72;100458.09;20665004;28;101445;-74
2022/07/25 00:37:48;;;;;;;;;;;;;;;26.62;36.01;100448.75;20674276;28;101504;-75
2022/07/25 00:47:48;;;;;;;;;;;;;;;26.53;35.75;100448.66;20689204;28;99284;-75
2022/07/25 00:57:49;;;;;;;;;;;;;;;26.58;35.78;100448.22;20664584;28;98858;-75
2022/07/25 01:07:50;;;;;;;;;;;;;;;26.46;36.21;100460.06;20666191;28;99704;-74
2022/07/25 01:17:51;;;;;;;;;;;;;;;26.38;36.13;100450.22;20645204;28;100801;-74
2022/07/25 01:27:52;;;;;;;;;;;;;;;26.27;36.06;100448.59;20666411;28;99087;-74
2022/07/25 01:37:52;;;;;;;;;;;;;;;26.23;36.08;100441.09;20664374;28;101166;-74
2022/07/25 01:47:53;;;;;;;;;;;;;;;26.16;36.03;100439.03;20664935;28;98503;-74
2022/07/25 01:57:53;;;;;;;;;;;;;;;26.04;36.09;100443.69;20664183;28;98892;-75
2022/07/25 02:07:53;;;;;;;;;;;;;;;25.91;36.57;100437.91;20640205;28;100500;-75
2022/07/25 02:17:54;;;;;;;;;;;;;;;25.88;36.62;100431.09;20642033;28;99334;-75
2022/07/25 02:27:56;;;;;;;;;;;;;;;25.87;36.50;100432.06;20655231;28;98599;-76
2022/07/25 02:37:57;;;;;;;;;;;;;;;25.81;36.55;100437.97;20660247;28;100520;-74
2022/07/25 02:47:57;;;;;;;;;;;;;;;25.73;36.77;100448.47;20662501;28;98505;-75
2022/07/25 02:57:57;;;;;;;;;;;;;;;25.63;36.84;100451.19;20661523;28;98407;-75
2022/07/25 03:07:57;;;;;;;;;;;;;;;25.57;37.27;100465.03;20659124;28;98257;-76
2022/07/25 03:17:58;;;;;;;;;;;;;;;25.56;37.36;100469.50;20657762;28;100520;-75
2022/07/25 03:27:58;;;;;;;;;;;;;;;25.35;38.22;100469.69;20657218;28;101378;-75
2022/07/25 03:37:59;;;;;;;;;;;;;;;25.31;37.98;100478.91;20660505;28;101445;-76
2022/07/25 03:48:00;;;;;;;;;;;;;;;25.21;38.27;100481.56;20667343;28;98993;-76
2022/07/25 03:58:01;;;;;;;;;;;;;;;25.16;38.28;100477.66;20663523;28;98451;-76
2022/07/25 04:08:01;;;;;;;;;;;;;;;25.02;38.73;100481.63;20655170;28;101435;-74
2022/07/25 04:18:01;;;;;;;;;;;;;;;25.06;38.47;100483.84;20679727;28;99234;-74
2022/07/25 04:28:04;;;;;;;;;;;;;;;25.02;38.78;100484.25;20650565;28;98424;-75
2022/07/25 04:38:04;;;;;;;;;;;;;;;24.97;39.01;100487.34;20686968;28;98213;-75
2022/07/25 04:48:05;;;;;;;;;;;;;;;24.95;39.01;100478.72;20691691;28;100771;-76
2022/07/25 04:58:05;;;;;;;;;;;;;;;25.05;39.45;100484.00;20679713;28;101425;-73
2022/07/25 05:08:06;;;;;;;;;;;;;;;24.99;40.02;100484.56;20667735;28;98873;-73
2022/07/25 05:18:06;;;;;;;;;;;;;;;24.90;39.96;100481.78;20660296;28;97987;-76
2022/07/25 05:28:07;;;;;;;;;;;;;;;25.03;39.49;100486.75;20682074;28;101087;-75
2022/07/25 05:38:08;;;;;;;;;;;;;;;25.11;39.08;100486.06;20697927;28;98459;-76
2022/07/25 05:48:09;;;;;;;;;;;;;;;25.24;38.87;100478.66;20703730;28;100382;-74
2022/07/25 05:58:09;;;;;;;;;;;;;;;25.25;38.12;100475.03;20704465;28;97623;-73
2022/07/25 06:08:12;;;;;;;;;;;;;;;25.38;37.92;100479.22;20729350;28;101252;-72
2022/07/25 06:18:12;;;;;;;;;;;;;;;25.41;37.20;100474.44;20704873;28;97902;-72
2022/07/25 06:28:13;;;;;;;;;;;;;;;25.53;37.11;100467.13;20729394;28;98356;-73
2022/07/25 06:38:18;;;;;;;;;;;;;;;25.64;36.59;100460.81;20712428;28;97740;-75
2022/07/25 06:48:19;;;;;;;;;;;;;;;25.71;36.38;100458.41;20679772;28;102056;-75
2022/07/25 06:58:20;;;;;;;;;;;;;;;25.81;36.47;100437.97;20654483;28;98790;-77
2022/07/25 07:08:20;;;;;;;;;;;;;;;25.91;36.25;100432.59;20670822;28;99477;-79
2022/07/25 07:18:21;;;;;;;;;;;;;;;26.02;35.48;100429.75;20703651;28;97927;-78
2022/07/25 07:28:21;;;;;;;;;;;;;;;26.11;35.28;100424.53;20696821;28;100687;-77
2022/07/25 07:38:23;;;;;;;;;;;;;;;26.23;35.38;100428.63;20667616;28;98584;-76
2022/07/25 07:48:23;;;;;;;;;;;;;;;26.43;34.69;100421.38;20667169;28;100005;-76
2022/07/25 07:58:25;;;;;;;;;;;;;;;26.58;34.22;100421.66;20695418;28;97839;-75
2022/07/25 08:08:26;;;;;;;;;;;;;;;26.69;33.69;100415.25;20711732;28;99402;-76
2022/07/25 08:18:34;;;;;;;;;;;;;;;26.83;33.36;100406.78;20718807;28;99342;-76
2022/07/25 08:28:34;;;;;;;;;;;;;;;26.91;33.21;100395.34;20689350;28;98540;-77
2022/07/25 08:38:34;;;;;;;;;;;;;;;27.06;33.55;100392.13;20670964;28;97862;-75
2022/07/25 08:48:36;;;;;;;;;;;;;;;27.14;33.23;100376.22;20660374;28;97826;-76
2022/07/25 08:58:37;;;;;;;;;;;;;;;27.22;33.17;100378.06;20705459;28;100152;-76
2022/07/25 09:08:48;;;;;;;;;;;;;;;27.30;32.36;100368.31;20718579;28;97832;-80
2022/07/25 09:18:48;;;;;;;;;;;;;;;27.40;32.13;100352.22;20738037;28;98634;-78
2022/07/25 09:28:51;;;;;;;;;;;;;;;27.52;31.95;100352.78;20719563;28;98663;-79
2022/07/25 09:39:00;;;;;;;;;;;;;;;27.61;32.09;100335.03;20732244;28;98150;-78
2022/07/25 09:49:08;;;;;;;;;;;;;;;27.73;31.81;100336.38;20726415;28;101447;-78
2022/07/25 09:59:09;;;;;;;;;;;;;;;27.83;31.82;100330.06;20723576;28;98645;-76
2022/07/25 10:09:10;;;;;;;;;;;;;;;27.85;31.81;100315.59;20708839;28;98346;-76
2022/07/25 10:19:13;;;;;;;;;;;;;;;27.93;31.21;100298.84;20693387;28;97919;-76
2022/07/25 10:29:14;;;;;;;;;;;;;;;28.01;31.44;100292.66;20732232;28;97897;-77
2022/07/25 10:39:16;;;;;;;;;;;;;;;28.08;31.29;100273.22;20720618;28;98487;-77
2022/07/25 10:49:17;;;;;;;;;;;;;;;28.23;31.23;100261.91;20738809;28;97324;-77
2022/07/25 10:59:34;;;;;;;;;;;;;;;28.35;32.36;100247.22;20731142;28;98663;-82
2022/07/25 11:09:41;;;;;;;;;;;;;;;28.50;34.25;100239.34;20727844;28;99733;-81
2022/07/25 11:19:56;;;;;;;;;;;;;;;28.59;32.41;100221.53;20728046;28;98142;-80
2022/07/25 11:30:10;;;;;;;;;;;;;;;28.70;31.22;100209.72;20722027;28;98617;-76
2022/07/25 11:40:15;;;;;;;;;;;;;;;28.76;30.66;100195.69;20741113;28;97970;-83
2022/07/25 11:50:15;;;;;;;;;;;;;;;28.83;30.49;100178.00;20706233;28;99008;-80
2022/07/25 12:00:17;;;;;;;;;;;;;;;28.89;30.18;100153.31;20745105;28;97759;-81
2022/07/25 12:10:23;;;;;;;;;;;;;;;28.99;30.20;100153.09;20738073;28;101461;-81
2022/07/25 12:20:23;;;;;;;;;;;;;;;29.10;28.96;100141.19;20733069;28;98462;-84
2022/07/25 12:30:24;;;;;;;;;;;;;;;29.17;28.21;100134.13;20708332;28;97950;-83
2022/07/25 12:40:25;;;;;;;;;;;;;;;29.26;27.40;100113.56;20727466;28;98243;-82
2022/07/25 12:50:25;;;;;;;;;;;;;;;29.32;26.48;100099.56;20728652;28;100484;-83
2022/07/25 13:00:27;;;;;;;;;;;;;;;29.41;26.90;100084.31;20704632;28;97921;-81
2022/07/25 13:10:27;;;;;;;;;;;;;;;29.49;26.78;100060.22;20735360;28;98573;-80
2022/07/25 13:20:30;;;;;;;;;;;;;;;29.55;27.07;100050.63;20747132;28;97168;-75
2022/07/25 13:30:30;;;;;;;;;;;;;;;29.89;24.72;100041.25;20665848;28;98413;-79
2022/07/25 13:40:31;;;;;;;;;;;;;;;30.24;24.07;100017.47;20708390;28;100994;-80
2022/07/25 13:50:31;;;;;;;;;;;;;;;30.15;24.93;100015.94;20701633;28;101293;-79
2022/07/25 14:00:32;;;;;;;;;;;;;;;30.14;25.55;99993.75;20694813;28;98926;-80
2022/07/25 14:10:38;;;;;;;;;;;;;;;30.21;25.00;99988.47;20681665;28;98546;-79
2022/07/25 14:20:40;;;;;;;;;;;;;;;30.29;24.18;99971.53;20711425;28;98062;-81
2022/07/25 14:30:40;;;;;;;;;;;;;;;30.32;26.11;99960.44;20679727;28;101081;-75
2022/07/25 14:40:40;;;;;;;;;;;;;;;30.39;26.57;99955.19;20676312;28;98789;-73
2022/07/25 14:50:41;;;;;;;;;;;;;;;30.46;25.88;99938.19;20688590;28;98668;-72
2022/07/25 15:00:42;;;;;;;;;;;;;;;30.52;26.85;99919.75;20683824;28;100001;-72
2022/07/25 15:10:44;;;;;;;;;;;;;;;30.55;27.45;99908.72;20697392;28;97610;-73
2022/07/25 15:20:47;;;;;;;;;;;;;;;30.58;26.98;99894.94;20725844;28;97451;-74
2022/07/25 15:30:48;;;;;;;;;;;;;;;30.59;25.76;99886.75;20724187;28;98047;-73
2022/07/25 15:40:56;;;;;;;;;;;;;;;30.61;25.35;99876.69;20742262;28;97722;-71
2022/07/25 15:50:57;;;;;;;;;;;;;;;30.65;25.06;99861.09;20734031;28;96920;-74
2022/07/25 16:00:58;;;;;;;;;;;;;;;30.63;25.69;99869.31;20740138;28;97021;-73
2022/07/25 16:10:58;;;;;;;;;;;;;;;30.62;25.13;99856.16;20760365;28;97345;-73
2022/07/25 16:20:59;;;;;;;;;;;;;;;30.58;25.41;99858.38;20745390;28;97524;-73
2022/07/25 16:30:59;;;;;;;;;;;;;;;30.55;25.93;99844.59;20745916;28;97040;-73
2022/07/25 16:41:00;;;;;;;;;;;;;;;30.52;25.59;99843.13;20756957;28;97674;-74
2022/07/25 16:51:00;;;;;;;;;;;;;;;30.49;26.24;99844.34;20762619;28;97893;-75
2022/07/25 17:01:00;;;;;;;;;;;;;;;30.46;25.88;99842.03;20752088;28;98139;-76
2022/07/25 17:11:01;;;;;;;;;;;;;;;30.44;26.04;99843.25;20687202;28;97745;-77
2022/07/25 17:21:01;;;;;;;;;;;;;;;30.40;26.20;99832.13;20685161;28;98138;-74
2022/07/25 17:31:01;;;;;;;;;;;;;;;30.33;26.10;99829.41;20678798;28;101135;-73
2022/07/25 17:41:02;;;;;;;;;;;;;;;30.31;26.63;99826.09;20692564;28;101074;-72
2022/07/25 17:51:02;;;;;;;;;;;;;;;30.27;26.85;99824.84;20683751;28;98864;-74
2022/07/25 18:01:02;;;;;;;;;;;;;;;30.22;27.19;99827.25;20686402;28;98589;-77
2022/07/25 18:11:05;;;;;;;;;;;;;;;30.14;26.60;99822.06;20690937;28;98343;-76
2022/07/25 18:21:05;;;;;;;;;;;;;;;30.10;25.55;99807.44;20696155;28;98500;-78
2022/07/25 18:31:05;;;;;;;;;;;;;;;30.04;24.84;99809.00;20684875;28;98711;-80
2022/07/25 18:41:06;;;;;;;;;;;;;;;29.98;25.48;99801.78;20668574;28;98990;-76
2022/07/25 18:51:07;;;;;;;;;;;;;;;29.91;25.53;99803.56;20682803;28;98639;-78
2022/07/25 19:01:08;;;;;;;;;;;;;;;29.79;26.63;99809.38;20689775;28;98363;-72
2022/07/25 19:11:08;;;;;;;;;;;;;;;29.69;26.18;99811.53;20678163;28;99060;-73
2022/07/25 19:21:09;;;;;;;;;;;;;;;29.60;26.12;99812.66;20627703;28;98541;-75
2022/07/25 19:31:09;;;;;;;;;;;;;;;29.52;26.17;99808.28;20624029;28;98410;-76
2022/07/25 19:41:09;;;;;;;;;;;;;;;29.41;25.64;99798.06;20667087;28;101334;-80
2022/07/25 19:51:10;;;;;;;;;;;;;;;29.30;26.09;99797.56;20671938;28;98858;-74
2022/07/25 20:01:11;;;;;;;;;;;;;;;29.17;26.71;99792.03;20693851;28;100176;-74
2022/07/25 20:11:12;;;;;;;;;;;;;;;29.03;26.84;99794.53;20693492;28;101764;-74
2022/07/25 20:21:13;;;;;;;;;;;;;;;28.87;27.34;99800.09;20698300;28;100845;-74
2022/07/25 20:31:13;;;;;;;;;;;;;;;28.77;27.46;99804.84;20690858;28;100775;-74
2022/07/25 20:41:14;;;;;;;;;;;;;;;28.70;27.85;99804.75;20686423;28;101473;-74
2022/07/25 20:51:15;;;;;;;;;;;;;;;28.57;28.33;99800.84;20697565;28;102061;-74
2022/07/25 21:01:15;;;;;;;;;;;;;;;28.52;28.44;99805.91;20695214;28;98266;-74
2022/07/25 21:11:16;;;;;;;;;;;;;;;28.36;28.70;99800.75;20690179;28;98037;-73
2022/07/25 21:21:17;;;;;;;;;;;;;;;28.20;29.21;99793.72;20679791;28;97923;-73
2022/07/25 21:31:17;;;;;;;;;;;;;;;28.05;29.53;99797.19;20694291;28;98180;-74
2022/07/25 21:41:18;;;;;;;;;;;;;;;27.94;29.57;99794.88;20683035;28;98366;-72
2022/07/25 21:51:18;;;;;;;;;;;;;;;28.00;30.21;99791.50;20690000;28;98899;-72
2022/07/25 22:01:19;;;;;;;;;;;;;;;27.99;29.72;99789.03;20691703;28;101668;-72
2022/07/25 22:11:19;;;;;;;;;;;;;;;27.88;29.82;99776.97;20680379;28;98392;-71
2022/07/25 22:21:20;;;;;;;;;;;;;;;27.72;30.31;99794.72;20683550;28;99799;-72
2022/07/25 22:31:20;;;;;;;;;;;;;;;27.67;30.32;99785.63;20675589;28;98883;-72
2022/07/25 22:41:20;;;;;;;;;;;;;;;27.46;29.93;99803.84;20680275;28;98216;-72
2022/07/25 22:51:21;;;;;;;;;;;;;;;27.33;30.95;99799.06;20677063;28;97409;-71
2022/07/25 23:01:21;;;;;;;;;;;;;;;27.24;30.56;99815.22;20661058;28;100743;-72
2022/07/25 23:11:22;;;;;;;;;;;;;;;27.20;30.85;99814.75;20658819;28;100704;-73
2022/07/25 23:21:23;;;;;;;;;;;;;;;27.13;31.55;99827.88;20660477;28;99087;-73
2022/07/25 23:31:24;;;;;;;;;;;;;;;27.06;31.63;99831.41;20666545;28;98698;-72
2022/07/25 23:41:24;;;;;;;;;;;;;;;27.00;31.64;99836.41;20662915;28;101425;-71
2022/07/25 23:51:24;;;;;;;;;;;;;;;26.96;31.72;99837.72;20671544;28;100233;-71
